WEATHER DATA

YESTERDAY
Time Temp. Dewp. Hum. Wind dir Wind speed Wind gust Bar. 1h Prec. 24h Prec.
00:05 0 -0.6 95 225 0.3 1.1 1028.4 0.0000 0.0000
00:15 0 -0.5 96 225 0.3 1.1 1028.4 0.0000 0.0000
00:24 -0.1 -0.6 96 219 0.3 0.8 1028.3 0.0000 0.0000
00:35 -0.3 -0.8 96 225 0.3 0.8 1028.2 0.0000 0.0000
00:45 -0.4 -0.9 96 234 0.3 1.4 1028.1 0.0000 0.0000
00:55 -0.5 -1 96 270 0.3 0.8 1028.1 0.0000 0.0000
01:05 -0.7 -1.2 96 225 0.3 1.1 1027.9 0.0000 0.0000
01:15 -0.9 -1.3 97 225 0.3 0.8 1027.9 0.0000 0.0000
01:25 -1.1 -1.5 97 233 0.3 0.8 1028.1 0.0000 0.0000
01:35 -1.2 -1.4 98 234 0.3 0.8 1028.3 0.0000 0.0000
01:45 -1.3 -1.5 98 270 0.3 0.8 1028.4 0.0000 0.0000
01:55 -1.4 -1.5 99 239 0.3 1.1 1028.3 0.0000 0.0000
02:05 -1.5 -1.5 100 237 0.3 0.8 1028.3 0.0000 0.0000
02:15 -1.6 -1.6 100 270 0.3 0.8 1028.3 0.0000 0.0000
02:25 -1.6 -1.6 100 270 0.3 0.8 1028.3 0.0000 0.0000
02:35 -1.6 -1.6 100 270 0.3 0.8 1028.2 0.0000 0.0000
02:45 -1.7 -1.7 100 270 0.3 0.8 1028.1 0.0000 0.0000
02:55 -1.7 -1.7 100 270 0.3 0.8 1028.1 0.0000 0.0000
03:05 -1.8 -1.8 100 270 0.3 1.1 1028.1 0.0000 0.0000
03:15 -1.9 -1.9 100 270 0.3 0.8 1028.1 0.0000 0.0000
03:25 -1.9 -1.9 100 270 0.3 1.1 1028 0.0000 0.0000
03:35 -2 -2 100 270 0.3 0.8 1027.9 0.0000 0.0000
03:45 -2 -2 100 270 0.3 0.8 1027.8 0.0000 0.0000
03:56 -2 -2 100 270 0.3 1.1 1027.7 0.0000 0.0000
04:05 -2.1 -2.1 100 270 0.3 0.8 1027.7 0.0000 0.0000
04:15 -2.1 -2.1 100 270 0.3 0.8 1027.7 0.0000 0.0000
04:25 -2.2 -2.2 100 225 0.3 1.1 1027.6 0.0000 0.0000
04:36 -2.3 -2.3 100 229 0.3 0.8 1027.5 0.0000 0.0000
04:45 -2.4 -2.4 100 235 0.3 0.8 1027.5 0.0000 0.0000
04:55 -2.5 -2.5 100 270 0.3 1.1 1027.5 0.0000 0.0000
05:06 -2.6 -2.6 100 234 0.3 1.1 1027.4 0.0000 0.0000
05:15 -2.6 -2.6 100 270 0.3 1.1 1027.3 0.0000 0.0000
05:25 -2.7 -2.7 100 180 0.3 1.1 1027.2 0.0000 0.0000
05:35 -2.8 -2.8 100 210 0.3 0.8 1027 0.0000 0.0000
05:46 -2.9 -2.9 100 229 0.3 0.8 1027 0.0000 0.0000
05:55 -3 -3 100 270 0.3 0.8 1027 0.0000 0.0000
06:05 -3.1 -3.1 100 182 0.3 1.1 1027 0.0000 0.0000
06:16 -3.1 -3.1 100 215 0.3 0.8 1027 0.0000 0.0000
06:26 -3.2 -3.2 100 239 0.3 0.8 1027.1 0.0000 0.0000
06:35 -3.3 -3.3 100 270 0.3 1.1 1027.2 0.0000 0.0000
06:46 -3.3 -3.3 100 270 0.3 0.8 1027 0.0000 0.0000
06:56 -3.3 -3.3 100 180 0.3 1.4 1027 0.0000 0.0000
07:05 -3.4 -3.4 100 220 0.3 1.1 1027 0.0000 0.0000
07:15 -3.4 -3.4 100 231 0.3 0.8 1027.1 0.0000 0.0000
07:26 -3.5 -3.5 100 240 0.3 1.1 1027.2 0.0000 0.0000
07:36 -3.5 -3.5 100 225 0.3 0.8 1027.2 0.0000 0.0000
07:45 -3.5 -3.5 100 270 0.3 0.8 1027.2 0.0000 0.0000
07:56 -3.4 -3.4 100 230 0.3 0.8 1027.3 0.0000 0.0000
08:06 -3.4 -3.4 100 270 0.3 0.8 1027.3 0.0000 0.0000
08:15 -3.4 -3.4 100 270 0.3 0.8 1027.4 0.0000 0.0000
08:26 -3.4 -3.4 100 270 0.3 1.1 1027.3 0.0000 0.0000
08:36 -3.3 -3.3 100 240 0.3 0.8 1027.2 0.0000 0.0000
08:46 -3.3 -3.3 100 225 0.3 0.8 1027.2 0.0000 0.0000
08:55 -3.3 -3.3 100 183 0.3 0.8 1026.9 0.0000 0.0000
09:06 -3.2 -3.2 100 190 0.3 1.1 1026.7 0.0000 0.0000
09:16 -3.1 -3.1 100 159 0.8 1.4 1026.7 0.0000 0.0000
09:26 -3 -3 100 164 0.3 0.8 1026.8 0.0000 0.0000
09:36 -2.8 -2.8 100 203 0.3 0.8 1026.8 0.0000 0.0000
09:46 -2.6 -2.6 100 190 0.3 0.8 1026.9 0.0000 0.0000
09:56 -1.9 -1.9 100 225 0.3 0.8 1027.1 0.0000 0.0000
10:06 -0.9 -0.9 100 200 0.3 0.8 1027.1 0.0000 0.0000
10:17 0 0 100 220 0.3 0.8 1026.9 0.0000 0.0000
10:26 0.9 0.9 100 216 0.3 1.1 1026.6 0.0000 0.0000
10:36 2 2 100 225 0.8 1.1 1026.2 0.0000 0.0000
10:46 3.1 3.1 100 198 0.3 1.1 1026 0.0000 0.0000
10:57 4.3 4.3 100 243 0.8 1.1 1025.7 0.0000 0.0000
11:06 5.4 5.4 100 216 0.3 1.4 1025.8 0.0000 0.0000
11:16 6.4 6.1 98 217 0.3 1.1 1026 0.0000 0.0000
11:27 7.3 6.2 93 240 0.8 1.4 1026 0.0000 0.0000
11:37 8.3 6.9 91 225 0.3 1.4 1025.7 0.0000 0.0000
11:46 9.1 6.9 86 173 1.1 2.8 1025.8 0.0000 0.0000
11:57 10 7.2 83 236 0.3 1.4 1025.8 0.0000 0.0000
12:07 10.8 6.9 77 167 1.1 4.7 1025.8 0.0000 0.0000
12:17 11.3 6.2 71 243 0.8 2.2 1025.6 0.0000 0.0000
12:26 11.8 6.3 69 161 1.1 2.5 1025.6 0.0000 0.0000
12:37 12.1 5.9 66 141 1.1 2.5 1025.6 0.0000 0.0000
12:47 12.2 5.1 62 165 0.8 2.2 1025.4 0.0000 0.0000
12:57 12.3 5 61 160 0.8 2.5 1025.4 0.0000 0.0000
13:07 12.4 4.4 58 174 0.8 2.5 1025.2 0.0000 0.0000
13:17 12.4 4.1 57 191 0.8 2.8 1025.2 0.0000 0.0000
13:27 12.5 4.5 58 171 1.1 2.5 1025 0.0000 0.0000
13:37 12.4 4.4 58 236 1.1 2.8 1024.8 0.0000 0.0000
13:47 12 4.2 59 259 0.8 2.5 1024.7 0.0000 0.0000
13:57 11.8 4.3 60 246 0.8 1.7 1024.5 0.0000 0.0000
14:07 11.7 4.2 60 161 0.8 2.5 1024.5 0.0000 0.0000
14:18 11.5 3.5 58 159 0.8 2.2 1024.3 0.0000 0.0000
14:28 11.4 3.4 58 167 0.8 2.2 1024.2 0.0000 0.0000
14:37 11.2 3.5 59 165 1.1 2.2 1024 0.0000 0.0000
14:47 11 3.1 58 190 1.1 2.2 1024 0.0000 0.0000
14:58 10.6 2.9 59 159 1.1 2.5 1023.9 0.0000 0.0000
15:08 10.3 2.4 58 205 0.8 2.2 1023.8 0.0000 0.0000
15:17 10 2.4 59 194 0.8 2.2 1023.9 0.0000 0.0000
15:28 9.5 1.7 58 219 1.1 2.8 1024 0.0000 0.0000
15:38 9.1 1.3 58 157 1.1 2.5 1023.9 0.0000 0.0000
15:48 8.8 1 58 210 0.8 1.7 1024 0.0000 0.0000
15:58 8.5 0.7 58 225 0.3 1.4 1024 0.0000 0.0000
16:08 8.2 0.4 58 229 0.8 1.7 1024 0.0000 0.0000
16:18 7.8 0.3 59 270 1.1 2.5 1023.9 0.0000 0.0000
16:28 7.3 -0.2 59 270 1.1 2.5 1023.8 0.0000 0.0000
16:38 6.8 -0.4 60 270 1.1 2.2 1023.8 0.0000 0.0000
16:48 6.3 -0.8 60 285 1.1 3.3 1023.5 0.0000 0.0000
16:58 5.9 -0.9 61 278 1.1 2.8 1023.7 0.0000 0.0000
17:08 5.4 -1.1 62 288 1.1 2.5 1023.8 0.0000 0.0000
17:18 4.9 -1.4 63 270 0.8 1.7 1023.8 0.0000 0.0000
17:28 4.5 -1.5 64 270 0.3 1.1 1023.7 0.0000 0.0000
17:38 4 -1.6 66 270 0.3 0.8 1023.5 0.0000 0.0000
17:49 3.5 -1.8 67 270 0.3 1.1 1023.4 0.0000 0.0000
17:58 3.1 -2 68 270 0.3 1.4 1023.3 0.0000 0.0000
18:08 2.6 -2.2 69 270 0.3 1.1 1023.3 0.0000 0.0000
18:19 2.2 -2.4 70 234 0.3 1.1 1023.3 0.0000 0.0000
18:29 1.9 -2.5 71 270 0.8 1.4 1023.4 0.0000 0.0000
18:38 1.9 -2.6 70 206 0.8 1.7 1023.4 0.0000 0.0000
18:48 1.9 -2.8 69 212 0.8 2.2 1023.1 0.0000 0.0000
18:59 1.9 -2.8 69 260 0.8 2.5 1023 0.0000 0.0000
19:09 1.9 -2.8 69 193 0.8 2.2 1023 0.0000 0.0000
19:18 1.8 -2.9 69 240 0.8 1.7 1022.9 0.0000 0.0000
19:29 1.7 -2.8 70 225 0.8 1.7 1022.8 0.0000 0.0000
19:39 1.7 -3 69 270 0.8 3.3 1022.7 0.0000 0.0000
19:49 1.7 -3 69 257 0.8 2.8 1022.7 0.0000 0.0000
19:58 1.6 -3.2 68 258 0.8 2.2 1022.7 0.0000 0.0000
20:09 1.4 -3.4 68 156 0.8 2.2 1022.8 0.0000 0.0000
20:19 1.2 -3.6 68 209 0.8 1.7 1022.8 0.0000 0.0000
20:29 1 -3.7 68 188 0.8 1.7 1022.7 0.0000 0.0000
20:39 0.9 -3.8 68 239 0.8 1.4 1022.7 0.0000 0.0000
20:49 0.7 -4 68 234 0.8 1.7 1022.8 0.0000 0.0000
20:59 0.6 -4.3 67 202 0.8 2.2 1022.8 0.0000 0.0000
21:09 0.4 -4.4 67 203 0.3 1.1 1022.7 0.0000 0.0000
21:19 0.3 -4.3 68 169 0.3 1.1 1022.6 0.0000 0.0000
21:29 0 -4.3 70 205 0.3 1.4 1022.7 0.0000 0.0000
21:39 0 -4.4 69 270 0.3 1.4 1022.7 0.0000 0.0000
21:50 -0.2 -4.3 71 229 0.3 1.1 1022.7 0.0000 0.0000
21:59 -0.2 -4.3 71 196 0.8 2.5 1022.6 0.0000 0.0000
22:09 -0.1 -4 72 210 0.8 1.4 1022.7 0.0000 0.0000
22:19 -0.2 -4 73 180 0.3 1.1 1022.6 0.0000 0.0000
22:30 -0.4 -3.8 75 270 0.3 1.1 1022.5 0.0000 0.0000
22:39 -0.6 -3.9 76 270 0.3 0.8 1022.4 0.0000 0.0000
22:49 -0.8 -3.9 77 270 0.3 0.8 1022.5 0.0000 0.0000
23:00 -1.1 -4.1 78 270 0.3 0.8 1022.6 0.0000 0.0000
23:10 -1.2 -4 79 270 0.3 1.1 1022.5 0.0000 0.0000
23:19 -1.4 -4.1 80 225 0.3 1.1 1022.5 0.0000 0.0000
23:30 -1.5 -4 81 270 0.3 1.4 1022.6 0.0000 0.0000
23:40 -1.5 -3.7 83 288 0.8 1.7 1022.5 0.0000 0.0000
23:50 -1.2 -3.3 84 270 1.1 2.5 1022.5 0.0000 0.0000

DAY STATISTIC

2018-11-18
TEMPERATURE
AVERAGE
1.9
HIGH
12.5
13:27
LOW
-3.5
07:26
PRESSURE
AVERAGE
1025.4
HIGH
1028.4
00:05
LOW
1022.4
22:39
DEWPOINT
AVERAGE
-1.0
HIGH
7.2
11:57
LOW
-4.4
21:09
HUMIDITY
AVERAGE
83
HIGH
100
02:05
LOW
57
13:17
WIND SPEED
AVERAGE
0.5
HIGH
1.1
11:46
WIND GUST
AVERAGE
1.5
HIGH
4.7
12:07
WIND DIRECTION
PREVAILING
SW
39.2%
N
0.0
NE
0.0
E
0.0
SE
2.1
S
23.1
SW
39.2
W
35.7
NW
0.0
PRECIPITATION
RAIN HOUR
0.0
RAIN DAY
0.0
TEMPERATURE (°C)
LOW
-3.5
HIGH
12.5
AVERAGE
1.9
PRESSURE (hpa)
LOW
1022.4
HIGH
1028.4
AVERAGE
1025.4
DEVICE